createdAt,value
2023-04-12T00:04:41.707Z,8.2
2023-04-12T00:19:41.551Z,8.1
2023-04-12T00:34:41.596Z,8.1
2023-04-12T00:49:41.580Z,8
2023-04-12T01:04:41.587Z,8
2023-04-12T01:19:41.596Z,8.1
2023-04-12T01:34:41.595Z,8.1
2023-04-12T01:49:41.562Z,8.1
2023-04-12T02:04:41.600Z,8
2023-04-12T02:19:41.601Z,7.9
2023-04-12T02:34:41.566Z,7.9
2023-04-12T02:49:41.571Z,8
2023-04-12T03:04:41.595Z,7.9
2023-04-12T03:19:41.572Z,7.9
2023-04-12T03:34:41.592Z,7.9
2023-04-12T03:49:41.560Z,7.8
2023-04-12T04:04:41.589Z,7.7
2023-04-12T04:19:41.614Z,7.7
2023-04-12T04:34:41.638Z,7.6
2023-04-12T04:49:41.580Z,7.7
2023-04-12T05:04:41.604Z,7.7
2023-04-12T05:19:41.588Z,7.8
2023-04-12T05:34:41.585Z,7.7
2023-04-12T05:49:41.587Z,7.8
2023-04-12T06:04:49.942Z,7.8
2023-04-12T06:19:41.590Z,7.9
2023-04-12T06:34:41.582Z,8.1
2023-04-12T06:49:41.585Z,8.4
2023-04-12T07:04:41.584Z,8.4
2023-04-12T07:19:41.558Z,8.7
2023-04-12T07:34:41.634Z,8.7
2023-04-12T07:49:41.584Z,8.8
2023-04-12T08:04:41.565Z,8.7
2023-04-12T08:19:41.593Z,8.6
2023-04-12T08:34:42.917Z,8.8
2023-04-12T08:49:41.592Z,8.8
2023-04-12T09:04:41.640Z,9.1
2023-04-12T09:19:41.549Z,8.6
2023-04-12T09:34:41.597Z,9.1
2023-04-12T09:49:41.626Z,8.9
2023-04-12T10:04:41.646Z,9.2
2023-04-12T10:19:41.570Z,9.3
2023-04-12T10:34:41.600Z,10.1
2023-04-12T10:49:41.606Z,10.3
2023-04-12T11:04:41.776Z,10.9
2023-04-12T11:19:41.593Z,11
2023-04-12T11:34:41.582Z,10.9
2023-04-12T11:49:41.581Z,11.2
2023-04-12T12:04:41.889Z,11.5
2023-04-12T12:19:41.635Z,11.6
2023-04-12T12:34:41.580Z,11.4
2023-04-12T12:49:41.563Z,11.4
2023-04-12T13:04:41.713Z,8.6
2023-04-12T13:19:41.575Z,8
2023-04-12T13:34:41.586Z,9.1
2023-04-12T13:49:41.603Z,8
2023-04-12T14:04:41.594Z,9.2
2023-04-12T14:19:41.579Z,9.9
2023-04-12T14:34:41.569Z,10.7
2023-04-12T14:49:41.587Z,9.9
2023-04-12T15:04:41.705Z,10.2
2023-04-12T15:19:41.583Z,9.1
2023-04-12T15:34:41.572Z,8.2
2023-04-12T15:49:41.593Z,11.5
2023-04-12T16:04:41.707Z,11.1
2023-04-12T16:19:41.530Z,11.7
2023-04-12T16:34:41.593Z,12.4
2023-04-12T16:49:41.603Z,12.4
2023-04-12T17:04:41.576Z,12
2023-04-12T17:19:41.601Z,10.7
2023-04-12T17:34:41.583Z,10
2023-04-12T17:49:41.578Z,9.8
2023-04-12T18:04:41.705Z,9.6
2023-04-12T18:19:41.591Z,8.8
2023-04-12T18:34:41.610Z,8.7
2023-04-12T18:49:41.564Z,8.3
2023-04-12T19:04:41.531Z,8.2
2023-04-12T19:19:41.594Z,8
2023-04-12T19:34:41.583Z,7.1
2023-04-12T19:49:41.579Z,6.9
2023-04-12T20:04:41.611Z,7.1
2023-04-12T20:19:41.570Z,6.9
2023-04-12T20:34:41.530Z,6.8
2023-04-12T20:49:41.605Z,6.8
2023-04-12T21:04:41.646Z,6.3
2023-04-12T21:19:41.598Z,6
2023-04-12T21:34:41.575Z,6.1
2023-04-12T21:49:41.584Z,6
2023-04-12T22:04:41.608Z,6.2
2023-04-12T22:19:41.564Z,6.2
2023-04-12T22:34:41.597Z,6.4
2023-04-12T22:49:41.538Z,6.8
2023-04-12T23:04:41.614Z,6.7
2023-04-12T23:19:41.562Z,6.8
2023-04-12T23:34:41.529Z,6.5
2023-04-12T23:49:41.585Z,6.5
